createdAt,value
2023-01-19T00:02:09.307Z,6.28
2023-01-19T00:05:13.472Z,5.53
2023-01-19T00:08:17.805Z,5.12
2023-01-19T00:11:21.720Z,5.50
2023-01-19T00:14:24.896Z,5.90
2023-01-19T00:17:28.001Z,5.82
2023-01-19T00:20:32.914Z,7.00
2023-01-19T00:23:39.193Z,6.60
2023-01-19T00:26:48.698Z,5.47
2023-01-19T00:29:52.036Z,4.90
2023-01-19T00:32:54.847Z,4.65
2023-01-19T00:35:57.595Z,5.30
2023-01-19T00:39:01.132Z,4.78
2023-01-19T00:42:22.969Z,4.05
2023-01-19T00:45:26.632Z,3.30
2023-01-19T00:48:31.027Z,3.90
2023-01-19T00:51:34.051Z,4.03
2023-01-19T00:54:37.181Z,2.72
2023-01-19T00:57:40.706Z,3.33
2023-01-19T01:00:44.813Z,2.17
2023-01-19T01:03:47.762Z,2.70
2023-01-19T01:06:54.110Z,2.87
2023-01-19T01:09:57.994Z,2.90
2023-01-19T01:13:20.714Z,2.90
2023-01-19T01:16:25.077Z,3.30
2023-01-19T01:19:28.328Z,3.20
2023-01-19T01:22:31.930Z,3.70
2023-01-19T01:25:37.861Z,4.20
2023-01-19T01:28:40.596Z,4.28
2023-01-19T01:31:43.438Z,4.80
2023-01-19T01:34:46.050Z,4.97
2023-01-19T01:37:49.048Z,5.60
2023-01-19T01:40:51.455Z,4.85
2023-01-19T01:43:58.711Z,5.20
2023-01-19T01:47:02.878Z,4.77
2023-01-19T01:50:09.645Z,4.62
2023-01-19T01:53:14.723Z,4.53
2023-01-19T01:56:24.445Z,5.07
2023-01-19T01:59:39.211Z,5.85
2023-01-19T02:02:51.596Z,5.73
2023-01-19T02:06:00.238Z,5.55
2023-01-19T02:09:28.497Z,6.10
2023-01-19T02:12:52.075Z,5.35
2023-01-19T02:16:03.940Z,3.83
2023-01-19T02:19:13.015Z,4.30
2023-01-19T02:22:38.933Z,3.85
2023-01-19T02:25:41.942Z,3.40
2023-01-19T02:29:00.724Z,2.95
2023-01-19T02:32:05.741Z,3.00
2023-01-19T02:35:10.001Z,2.60
2023-01-19T02:38:16.437Z,2.87
2023-01-19T02:41:26.092Z,2.35
2023-01-19T02:44:30.643Z,2.30
2023-01-19T02:47:49.540Z,1.90
2023-01-19T02:50:57.585Z,1.63
2023-01-19T02:54:22.475Z,1.60
2023-01-19T02:57:51.144Z,1.90
2023-01-19T03:01:18.693Z,1.58
2023-01-19T03:04:22.268Z,1.48
2023-01-19T03:07:39.336Z,1.50
2023-01-19T03:11:00.610Z,1.62
2023-01-19T03:14:14.484Z,1.45
2023-01-19T03:17:19.121Z,1.60
2023-01-19T03:20:25.571Z,1.42
2023-01-19T03:23:32.234Z,1.77
2023-01-19T03:26:49.892Z,1.35
2023-01-19T03:30:01.857Z,1.42
2023-01-19T03:33:13.054Z,1.40
2023-01-19T03:36:27.075Z,1.50
2023-01-19T03:39:32.011Z,1.40
2023-01-19T03:42:37.074Z,1.62
2023-01-19T03:45:40.759Z,1.58
2023-01-19T03:48:45.520Z,1.50
2023-01-19T03:51:49.794Z,1.37
2023-01-19T03:54:59.441Z,1.47
2023-01-19T03:58:03.967Z,1.62
2023-01-19T04:01:07.953Z,1.67
2023-01-19T04:04:10.793Z,1.58
2023-01-19T04:07:13.534Z,1.60
2023-01-19T04:10:19.887Z,1.47
2023-01-19T04:13:23.842Z,1.55
2023-01-19T04:16:27.816Z,1.48
2023-01-19T04:19:30.619Z,1.35
2023-01-19T04:22:35.602Z,1.40
2023-01-19T04:25:39.027Z,1.30
2023-01-19T04:28:42.855Z,0.90
2023-01-19T04:31:45.799Z,1.17
2023-01-19T04:34:48.799Z,0.98
2023-01-19T04:37:51.698Z,1.00
2023-01-19T04:40:55.950Z,0.73
2023-01-19T04:43:58.764Z,0.80
2023-01-19T04:47:02.959Z,0.70
2023-01-19T04:50:08.648Z,0.80
2023-01-19T04:53:13.843Z,1.23
2023-01-19T04:56:18.687Z,0.90
2023-01-19T04:59:23.196Z,0.73
2023-01-19T05:02:27.952Z,0.60
2023-01-19T05:05:33.075Z,0.75
2023-01-19T05:08:37.004Z,1.10
2023-01-19T05:11:40.661Z,0.83
2023-01-19T05:14:44.874Z,1.10
2023-01-19T05:17:50.046Z,0.70
2023-01-19T05:20:54.927Z,1.00
2023-01-19T05:23:59.129Z,1.02
2023-01-19T05:27:04.974Z,0.80
2023-01-19T05:30:10.757Z,1.00
2023-01-19T05:33:23.639Z,0.60
2023-01-19T05:36:27.993Z,0.65
2023-01-19T05:39:32.599Z,0.73
2023-01-19T05:42:37.666Z,0.90
2023-01-19T05:45:41.752Z,0.60
2023-01-19T05:48:48.941Z,0.75
2023-01-19T05:51:52.245Z,0.70
2023-01-19T05:54:56.139Z,0.70
2023-01-19T05:57:58.724Z,0.67
2023-01-19T06:01:05.518Z,0.57
2023-01-19T06:04:10.640Z,1.40
2023-01-19T06:07:23.317Z,1.25
2023-01-19T06:10:31.639Z,1.00
2023-01-19T06:13:36.110Z,0.80
2023-01-19T06:16:47.668Z,0.73
2023-01-19T06:19:52.900Z,1.20
2023-01-19T06:23:00.161Z,1.20
2023-01-19T06:26:04.139Z,1.50
2023-01-19T06:29:12.324Z,1.90
2023-01-19T06:32:15.305Z,1.42
2023-01-19T06:35:20.592Z,1.60
2023-01-19T06:38:23.659Z,1.55
2023-01-19T06:41:26.657Z,1.73
2023-01-19T06:44:30.454Z,2.30
2023-01-19T06:47:37.140Z,2.15
2023-01-19T06:50:40.913Z,1.90
2023-01-19T06:53:44.607Z,1.52
2023-01-19T06:56:49.788Z,2.08
2023-01-19T06:59:53.659Z,1.53
2023-01-19T07:02:56.693Z,1.30
2023-01-19T07:06:06.652Z,1.98
2023-01-19T07:09:12.001Z,1.60
2023-01-19T07:12:17.713Z,1.67
2023-01-19T07:15:29.522Z,1.70
2023-01-19T07:18:33.155Z,1.55
2023-01-19T07:21:37.772Z,1.62
2023-01-19T07:24:42.850Z,2.30
2023-01-19T07:27:48.810Z,3.20
2023-01-19T07:30:54.775Z,3.10
2023-01-19T07:33:58.113Z,3.28
2023-01-19T07:37:02.771Z,3.65
2023-01-19T07:40:07.788Z,3.17
2023-01-19T07:43:10.891Z,3.67
2023-01-19T07:46:18.179Z,3.50
2023-01-19T07:49:21.474Z,3.97
2023-01-19T07:52:31.039Z,4.12
2023-01-19T07:55:35.576Z,4.80
2023-01-19T07:58:46.964Z,4.22
2023-01-19T08:01:53.609Z,4.73
2023-01-19T08:04:56.727Z,5.10
2023-01-19T08:08:00.737Z,4.87
2023-01-19T08:11:10.544Z,4.70
2023-01-19T08:14:14.671Z,4.62
2023-01-19T08:17:22.096Z,4.20
2023-01-19T08:20:29.146Z,4.95
2023-01-19T08:23:32.720Z,5.57
2023-01-19T08:26:35.790Z,5.15
2023-01-19T08:29:39.114Z,5.60
2023-01-19T08:32:44.755Z,5.20
2023-01-19T08:35:50.627Z,6.03
2023-01-19T08:38:54.273Z,5.70
2023-01-19T08:42:04.231Z,5.65
2023-01-19T08:45:09.571Z,6.50
2023-01-19T08:48:19.754Z,5.67
2023-01-19T08:51:32.875Z,6.37
2023-01-19T08:54:39.327Z,7.05
2023-01-19T08:57:43.714Z,6.80
2023-01-19T09:00:52.784Z,8.30
2023-01-19T09:03:56.337Z,8.10
2023-01-19T09:07:02.986Z,7.97
2023-01-19T09:10:10.620Z,7.80
2023-01-19T09:13:18.974Z,8.88
2023-01-19T09:16:22.207Z,8.68
2023-01-19T09:19:30.543Z,8.70
2023-01-19T09:22:36.369Z,8.57
2023-01-19T09:25:42.098Z,8.57
2023-01-19T09:28:45.190Z,8.43
2023-01-19T09:31:49.880Z,8.70
2023-01-19T09:34:55.281Z,9.37
2023-01-19T09:38:00.118Z,9.70
2023-01-19T09:41:05.651Z,10.13
2023-01-19T09:44:18.765Z,10.60
2023-01-19T09:47:27.362Z,10.48
2023-01-19T09:50:46.824Z,10.60
2023-01-19T09:53:56.539Z,10.32
2023-01-19T09:57:11.714Z,10.68
2023-01-19T10:00:23.595Z,9.93
2023-01-19T10:03:29.561Z,9.82
2023-01-19T10:06:36.557Z,9.77
2023-01-19T10:09:58.787Z,9.07
2023-01-19T10:13:29.247Z,9.48
2023-01-19T10:16:45.772Z,12.65
2023-01-19T10:19:54.569Z,12.18
2023-01-19T10:23:02.308Z,12.83
2023-01-19T10:26:28.667Z,11.20
2023-01-19T10:29:38.416Z,10.57
2023-01-19T10:32:49.666Z,10.68
2023-01-19T10:35:56.382Z,9.93
2023-01-19T10:39:06.575Z,10.07
2023-01-19T10:42:16.121Z,10.73
2023-01-19T10:45:31.660Z,10.90
2023-01-19T10:48:43.655Z,9.90
2023-01-19T10:51:49.300Z,10.82
2023-01-19T10:54:56.760Z,10.57
2023-01-19T10:58:01.470Z,9.95
2023-01-19T11:01:20.807Z,9.50
2023-01-19T11:04:42.794Z,10.57
2023-01-19T11:07:50.799Z,12.02
2023-01-19T11:11:04.656Z,11.30
2023-01-19T11:14:13.855Z,10.18
2023-01-19T11:17:26.012Z,10.38
2023-01-19T11:20:37.643Z,10.45
2023-01-19T11:23:53.146Z,11.07
2023-01-19T11:27:05.907Z,10.17
2023-01-19T11:30:31.611Z,10.15
2023-01-19T11:33:42.668Z,9.88
2023-01-19T11:37:03.441Z,10.02
2023-01-19T11:40:14.393Z,11.45
2023-01-19T11:43:47.450Z,9.80
2023-01-19T11:47:19.517Z,10.55
2023-01-19T11:50:35.603Z,12.10
2023-01-19T11:53:52.639Z,10.50
2023-01-19T11:57:00.130Z,11.48
2023-01-19T12:00:23.150Z,11.13
2023-01-19T12:03:34.695Z,10.60
2023-01-19T12:06:53.606Z,11.63
2023-01-19T12:10:25.935Z,11.07
2023-01-19T12:13:32.058Z,10.55
2023-01-19T12:16:43.723Z,11.43
2023-01-19T12:20:05.550Z,10.45
2023-01-19T12:23:21.687Z,10.23
2023-01-19T12:26:39.574Z,10.25
2023-01-19T12:29:47.745Z,10.10
2023-01-19T12:32:52.366Z,9.93
2023-01-19T12:36:06.112Z,9.15
2023-01-19T12:39:24.565Z,9.52
2023-01-19T12:42:32.010Z,10.38
2023-01-19T12:45:40.516Z,10.23
2023-01-19T12:48:51.643Z,10.20
2023-01-19T12:52:28.613Z,10.60
2023-01-19T12:55:47.596Z,10.13
2023-01-19T12:58:53.612Z,9.63
2023-01-19T13:02:30.597Z,9.48
2023-01-19T13:05:41.918Z,9.10
2023-01-19T13:08:58.607Z,9.35
2023-01-19T13:12:14.787Z,10.50
2023-01-19T13:15:39.674Z,10.77
2023-01-19T13:18:44.014Z,9.60
2023-01-19T13:21:58.194Z,11.13
2023-01-19T13:25:28.578Z,9.55
2023-01-19T13:28:46.652Z,10.68
2023-01-19T13:32:12.514Z,11.15
2023-01-19T13:35:23.597Z,11.57
2023-01-19T13:38:32.964Z,10.50
2023-01-19T13:41:48.909Z,11.20
2023-01-19T13:45:04.499Z,11.23
2023-01-19T13:48:20.595Z,11.38
2023-01-19T13:51:24.533Z,11.35
2023-01-19T13:54:30.782Z,11.70
2023-01-19T13:57:58.502Z,11.30
2023-01-19T14:01:29.226Z,11.15
2023-01-19T14:04:42.617Z,11.10
2023-01-19T14:08:20.778Z,10.07
2023-01-19T14:11:34.903Z,9.80
2023-01-19T14:14:47.513Z,8.55
2023-01-19T14:18:20.600Z,9.88
2023-01-19T14:21:46.134Z,9.30
2023-01-19T14:24:54.599Z,8.48
2023-01-19T14:28:41.074Z,7.80
2023-01-19T14:32:01.732Z,8.00
2023-01-19T14:35:26.548Z,8.02
2023-01-19T14:38:31.578Z,8.40
2023-01-19T14:41:50.724Z,8.52
2023-01-19T14:45:21.505Z,7.93
2023-01-19T14:48:29.716Z,7.65
2023-01-19T14:51:45.854Z,7.22
2023-01-19T14:55:00.066Z,8.10
2023-01-19T14:58:12.945Z,8.68
2023-01-19T15:01:18.073Z,7.77
2023-01-19T15:04:25.460Z,8.13
2023-01-19T15:07:32.695Z,7.97
2023-01-19T15:10:46.295Z,8.45
2023-01-19T15:14:02.508Z,7.93
2023-01-19T15:17:14.488Z,7.17
2023-01-19T15:20:21.062Z,7.70
2023-01-19T15:23:28.603Z,8.77
2023-01-19T15:26:49.686Z,9.00
2023-01-19T15:29:54.494Z,8.30
2023-01-19T15:33:05.466Z,8.03
2023-01-19T15:36:25.359Z,8.65
2023-01-19T15:39:28.796Z,8.95
2023-01-19T15:42:35.579Z,8.85
2023-01-19T15:46:06.577Z,9.30
2023-01-19T15:49:19.132Z,9.10
2023-01-19T15:52:36.535Z,9.30
2023-01-19T15:55:43.520Z,8.88
2023-01-19T15:58:55.134Z,9.80
2023-01-19T16:02:03.018Z,10.70
2023-01-19T16:05:21.596Z,10.43
2023-01-19T16:08:38.182Z,11.15
2023-01-19T16:11:50.612Z,10.57
2023-01-19T16:14:55.645Z,10.70
2023-01-19T16:18:07.651Z,10.60
2023-01-19T16:21:14.650Z,9.97
2023-01-19T16:24:28.826Z,10.82
2023-01-19T16:27:32.181Z,10.50
2023-01-19T16:30:39.775Z,10.30
2023-01-19T16:33:50.204Z,10.60
2023-01-19T16:36:59.534Z,10.20
2023-01-19T16:40:07.593Z,11.93
2023-01-19T16:43:21.631Z,12.63
2023-01-19T16:46:39.618Z,11.70
2023-01-19T16:49:56.265Z,13.27
2023-01-19T16:53:01.094Z,12.73
2023-01-19T16:56:09.534Z,11.15
2023-01-19T16:59:24.642Z,11.40
2023-01-19T17:02:44.807Z,11.55
2023-01-19T17:05:52.969Z,11.57
2023-01-19T17:09:00.547Z,10.33
2023-01-19T17:12:09.851Z,10.40
2023-01-19T17:15:27.273Z,11.82
2023-01-19T17:18:52.761Z,11.07
2023-01-19T17:22:11.467Z,10.45
2023-01-19T17:25:17.877Z,10.50
2023-01-19T17:28:23.630Z,11.38
2023-01-19T17:31:43.558Z,11.65
2023-01-19T17:35:05.581Z,11.02
2023-01-19T17:38:19.577Z,9.68
2023-01-19T17:41:35.088Z,10.83
2023-01-19T17:44:58.458Z,13.18
2023-01-19T17:48:03.609Z,10.13
2023-01-19T17:51:20.540Z,10.57
2023-01-19T17:54:31.178Z,9.95
2023-01-19T17:57:44.673Z,9.77
2023-01-19T18:01:20.680Z,10.38
2023-01-19T18:04:32.187Z,10.27
2023-01-19T18:07:44.530Z,9.88
2023-01-19T18:11:16.471Z,10.55
2023-01-19T18:14:28.672Z,9.73
2023-01-19T18:17:48.049Z,9.13
2023-01-19T18:20:52.536Z,10.35
2023-01-19T18:24:08.436Z,9.95
2023-01-19T18:27:17.538Z,10.35
2023-01-19T18:30:22.624Z,10.27
2023-01-19T18:33:26.705Z,9.45
2023-01-19T18:36:44.544Z,10.13
2023-01-19T18:39:51.594Z,10.20
2023-01-19T18:42:58.588Z,9.75
2023-01-19T18:46:12.610Z,9.53
2023-01-19T18:49:17.647Z,9.85
2023-01-19T18:52:38.436Z,9.73
2023-01-19T18:56:06.406Z,9.05
2023-01-19T18:59:12.977Z,8.88
2023-01-19T19:02:20.307Z,7.97
2023-01-19T19:05:31.520Z,7.97
2023-01-19T19:08:39.559Z,8.73
2023-01-19T19:11:49.724Z,7.57
2023-01-19T19:14:59.474Z,6.90
2023-01-19T19:18:17.516Z,8.73
2023-01-19T19:21:30.542Z,11.55
2023-01-19T19:24:35.594Z,9.88
2023-01-19T19:27:54.413Z,8.25
2023-01-19T19:31:12.977Z,8.70
2023-01-19T19:34:26.533Z,9.20
2023-01-19T19:37:44.589Z,9.15
2023-01-19T19:40:52.485Z,9.38
2023-01-19T19:44:02.510Z,9.30
2023-01-19T19:47:09.977Z,9.50
2023-01-19T19:50:17.994Z,9.57
2023-01-19T19:53:27.483Z,8.65
2023-01-19T19:56:40.512Z,9.20
2023-01-19T19:59:48.740Z,9.27
2023-01-19T20:02:56.485Z,8.95
2023-01-19T20:06:09.286Z,7.90
2023-01-19T20:09:24.523Z,7.30
2023-01-19T20:12:34.961Z,7.90
2023-01-19T20:15:45.547Z,6.95
2023-01-19T20:18:59.559Z,7.25
2023-01-19T20:22:13.545Z,7.53
2023-01-19T20:25:17.190Z,7.43
2023-01-19T20:28:28.665Z,6.85
2023-01-19T20:31:39.955Z,8.27
2023-01-19T20:34:43.520Z,7.05
2023-01-19T20:37:56.531Z,7.57
2023-01-19T20:41:14.974Z,8.13
2023-01-19T20:44:28.446Z,7.75
2023-01-19T20:47:38.425Z,8.35
2023-01-19T20:50:49.788Z,8.50
2023-01-19T20:53:57.548Z,7.25
2023-01-19T20:57:02.583Z,7.80
2023-01-19T21:00:20.956Z,8.13
2023-01-19T21:03:31.717Z,7.43
2023-01-19T21:06:47.828Z,7.97
2023-01-19T21:09:54.832Z,7.35
2023-01-19T21:13:07.497Z,7.90
2023-01-19T21:16:21.522Z,7.85
2023-01-19T21:19:31.736Z,8.02
2023-01-19T21:22:43.437Z,8.43
2023-01-19T21:25:53.879Z,8.18
2023-01-19T21:29:05.572Z,8.45
2023-01-19T21:32:08.931Z,8.40
2023-01-19T21:35:14.100Z,8.73
2023-01-19T21:38:18.229Z,8.37
2023-01-19T21:41:27.341Z,8.45
2023-01-19T21:44:33.438Z,8.65
2023-01-19T21:47:38.484Z,8.02
2023-01-19T21:50:57.250Z,9.15
2023-01-19T21:54:08.238Z,9.13
2023-01-19T21:57:11.415Z,9.45
2023-01-19T22:00:15.036Z,9.23
2023-01-19T22:03:21.067Z,8.90
2023-01-19T22:06:26.826Z,8.80
2023-01-19T22:09:35.171Z,8.67
2023-01-19T22:12:42.700Z,8.93
2023-01-19T22:15:51.491Z,9.30
2023-01-19T22:18:59.699Z,8.68
2023-01-19T22:22:04.513Z,8.85
2023-01-19T22:25:12.968Z,9.17
2023-01-19T22:28:16.059Z,9.48
2023-01-19T22:31:20.424Z,9.23
2023-01-19T22:34:24.885Z,8.68
2023-01-19T22:37:34.500Z,9.35
2023-01-19T22:40:38.119Z,8.07
2023-01-19T22:43:41.860Z,8.43
2023-01-19T22:46:45.516Z,8.10
2023-01-19T22:49:48.633Z,8.02
2023-01-19T22:52:55.837Z,8.27
2023-01-19T22:55:59.058Z,8.77
2023-01-19T22:59:04.809Z,8.38
2023-01-19T23:02:10.070Z,8.77
2023-01-19T23:05:17.259Z,9.38
2023-01-19T23:08:20.679Z,9.93
2023-01-19T23:11:36.153Z,8.63
2023-01-19T23:14:41.477Z,8.48
2023-01-19T23:17:47.375Z,7.93
2023-01-19T23:20:50.082Z,8.82
2023-01-19T23:23:56.442Z,9.10
2023-01-19T23:27:02.469Z,8.85
2023-01-19T23:30:08.000Z,9.38
2023-01-19T23:33:10.866Z,9.07
2023-01-19T23:36:15.523Z,9.45
2023-01-19T23:39:22.510Z,8.67
2023-01-19T23:42:25.476Z,9.07
2023-01-19T23:45:36.224Z,9.60
2023-01-19T23:48:40.476Z,8.85
2023-01-19T23:51:43.587Z,9.18
2023-01-19T23:54:47.791Z,9.40
2023-01-19T23:57:51.157Z,9.27
